sensor_id;sensor_type;location;lat;lon;timestamp;P1;durP1;ratioP1;P2;durP2;ratioP2
6878;SDS011;3478;51.462;7.338;2023-09-12T00:01:43;3.30;;;2.57;;
6878;SDS011;3478;51.462;7.338;2023-09-12T00:06:44;2.20;;;2.07;;
6878;SDS011;3478;51.462;7.338;2023-09-12T00:11:48;2.20;;;2.10;;
6878;SDS011;3478;51.462;7.338;2023-09-12T00:16:49;1.93;;;1.83;;
6878;SDS011;3478;51.462;7.338;2023-09-12T00:21:55;2.07;;;1.97;;
6878;SDS011;3478;51.462;7.338;2023-09-12T00:26:58;2.50;;;2.40;;
6878;SDS011;3478;51.462;7.338;2023-09-12T00:32:00;4.07;;;2.60;;
6878;SDS011;3478;51.462;7.338;2023-09-12T00:37:02;5.97;;;2.17;;
6878;SDS011;3478;51.462;7.338;2023-09-12T00:42:07;2.87;;;2.67;;
6878;SDS011;3478;51.462;7.338;2023-09-12T00:47:09;2.83;;;2.57;;
6878;SDS011;3478;51.462;7.338;2023-09-12T00:52:13;2.30;;;2.20;;
6878;SDS011;3478;51.462;7.338;2023-09-12T00:57:17;2.17;;;2.07;;
6878;SDS011;3478;51.462;7.338;2023-09-12T01:02:20;2.57;;;2.37;;
6878;SDS011;3478;51.462;7.338;2023-09-12T01:07:22;3.30;;;3.00;;
6878;SDS011;3478;51.462;7.338;2023-09-12T01:12:25;3.00;;;2.70;;
6878;SDS011;3478;51.462;7.338;2023-09-12T01:17:28;3.00;;;2.80;;
6878;SDS011;3478;51.462;7.338;2023-09-12T01:27:57;3.57;;;3.27;;
6878;SDS011;3478;51.462;7.338;2023-09-12T01:33:03;3.90;;;3.60;;
6878;SDS011;3478;51.462;7.338;2023-09-12T01:38:05;4.23;;;3.83;;
6878;SDS011;3478;51.462;7.338;2023-09-12T01:43:09;6.63;;;5.23;;
6878;SDS011;3478;51.462;7.338;2023-09-12T01:48:12;6.97;;;6.27;;
6878;SDS011;3478;51.462;7.338;2023-09-12T01:53:16;7.60;;;6.80;;
6878;SDS011;3478;51.462;7.338;2023-09-12T01:58:19;7.70;;;7.00;;
6878;SDS011;3478;51.462;7.338;2023-09-12T02:03:22;10.20;;;7.90;;
6878;SDS011;3478;51.462;7.338;2023-09-12T02:08:23;8.90;;;8.00;;
6878;SDS011;3478;51.462;7.338;2023-09-12T02:13:27;9.77;;;8.27;;
6878;SDS011;3478;51.462;7.338;2023-09-12T02:18:28;11.90;;;10.53;;
6878;SDS011;3478;51.462;7.338;2023-09-12T02:23:30;13.93;;;11.93;;
6878;SDS011;3478;51.462;7.338;2023-09-12T02:28:33;9.90;;;8.90;;
6878;SDS011;3478;51.462;7.338;2023-09-12T02:33:35;9.40;;;8.40;;
6878;SDS011;3478;51.462;7.338;2023-09-12T02:38:38;10.03;;;9.03;;
6878;SDS011;3478;51.462;7.338;2023-09-12T02:43:41;11.20;;;9.70;;
6878;SDS011;3478;51.462;7.338;2023-09-12T02:48:43;12.97;;;11.73;;
6878;SDS011;3478;51.462;7.338;2023-09-12T02:53:45;12.80;;;11.50;;
6878;SDS011;3478;51.462;7.338;2023-09-12T02:58:48;15.97;;;10.97;;
6878;SDS011;3478;51.462;7.338;2023-09-12T03:03:50;10.77;;;9.60;;
6878;SDS011;3478;51.462;7.338;2023-09-12T03:08:52;10.77;;;9.67;;
6878;SDS011;3478;51.462;7.338;2023-09-12T03:13:55;11.13;;;10.13;;
6878;SDS011;3478;51.462;7.338;2023-09-12T03:18:57;10.10;;;9.10;;
6878;SDS011;3478;51.462;7.338;2023-09-12T03:24:01;10.03;;;8.70;;
6878;SDS011;3478;51.462;7.338;2023-09-12T03:29:04;12.40;;;10.70;;
6878;SDS011;3478;51.462;7.338;2023-09-12T03:34:06;13.17;;;11.97;;
6878;SDS011;3478;51.462;7.338;2023-09-12T03:39:08;15.23;;;12.43;;
6878;SDS011;3478;51.462;7.338;2023-09-12T03:44:14;15.43;;;13.80;;
6878;SDS011;3478;51.462;7.338;2023-09-12T03:49:16;16.90;;;13.67;;
6878;SDS011;3478;51.462;7.338;2023-09-12T03:54:18;16.47;;;14.47;;
6878;SDS011;3478;51.462;7.338;2023-09-12T03:59:21;16.33;;;12.20;;
6878;SDS011;3478;51.462;7.338;2023-09-12T04:04:23;14.60;;;12.90;;
6878;SDS011;3478;51.462;7.338;2023-09-12T04:09:25;18.13;;;14.07;;
6878;SDS011;3478;51.462;7.338;2023-09-12T04:14:29;15.57;;;11.20;;
6878;SDS011;3478;51.462;7.338;2023-09-12T04:19:31;11.73;;;10.47;;
6878;SDS011;3478;51.462;7.338;2023-09-12T04:24:32;13.10;;;10.07;;
6878;SDS011;3478;51.462;7.338;2023-09-12T04:29:36;11.33;;;9.33;;
6878;SDS011;3478;51.462;7.338;2023-09-12T04:34:37;9.97;;;9.10;;
6878;SDS011;3478;51.462;7.338;2023-09-12T04:39:39;9.03;;;8.03;;
6878;SDS011;3478;51.462;7.338;2023-09-12T04:44:42;8.40;;;7.60;;
6878;SDS011;3478;51.462;7.338;2023-09-12T04:49:44;9.20;;;8.23;;
6878;SDS011;3478;51.462;7.338;2023-09-12T04:54:46;9.50;;;8.47;;
6878;SDS011;3478;51.462;7.338;2023-09-12T04:59:49;10.50;;;9.50;;
6878;SDS011;3478;51.462;7.338;2023-09-12T05:04:52;9.20;;;8.27;;
6878;SDS011;3478;51.462;7.338;2023-09-12T05:09:54;11.30;;;8.43;;
6878;SDS011;3478;51.462;7.338;2023-09-12T05:14:57;16.40;;;7.97;;
6878;SDS011;3478;51.462;7.338;2023-09-12T05:19:59;8.20;;;7.40;;
6878;SDS011;3478;51.462;7.338;2023-09-12T05:25:01;9.37;;;8.40;;
6878;SDS011;3478;51.462;7.338;2023-09-12T05:30:05;8.83;;;8.03;;
6878;SDS011;3478;51.462;7.338;2023-09-12T05:35:08;11.43;;;8.20;;
6878;SDS011;3478;51.462;7.338;2023-09-12T05:40:10;12.20;;;9.40;;
6878;SDS011;3478;51.462;7.338;2023-09-12T05:45:13;11.93;;;9.20;;
6878;SDS011;3478;51.462;7.338;2023-09-12T05:50:15;10.30;;;9.30;;
6878;SDS011;3478;51.462;7.338;2023-09-12T05:55:17;13.70;;;9.90;;
6878;SDS011;3478;51.462;7.338;2023-09-12T06:00:20;13.03;;;11.63;;
6878;SDS011;3478;51.462;7.338;2023-09-12T06:05:23;13.90;;;11.20;;
6878;SDS011;3478;51.462;7.338;2023-09-12T06:10:24;10.47;;;8.73;;
6878;SDS011;3478;51.462;7.338;2023-09-12T06:15:28;10.57;;;9.47;;
6878;SDS011;3478;51.462;7.338;2023-09-12T06:20:30;10.20;;;9.40;;
6878;SDS011;3478;51.462;7.338;2023-09-12T06:25:31;9.73;;;9.03;;
6878;SDS011;3478;51.462;7.338;2023-09-12T06:30:36;9.43;;;8.53;;
6878;SDS011;3478;51.462;7.338;2023-09-12T06:35:38;12.40;;;9.67;;
6878;SDS011;3478;51.462;7.338;2023-09-12T06:40:40;10.80;;;9.67;;
6878;SDS011;3478;51.462;7.338;2023-09-12T06:45:45;18.03;;;10.63;;
6878;SDS011;3478;51.462;7.338;2023-09-12T06:50:48;11.37;;;10.00;;
6878;SDS011;3478;51.462;7.338;2023-09-12T06:55:50;12.97;;;10.60;;
6878;SDS011;3478;51.462;7.338;2023-09-12T07:00:53;11.00;;;9.83;;
6878;SDS011;3478;51.462;7.338;2023-09-12T07:05:55;11.37;;;9.60;;
6878;SDS011;3478;51.462;7.338;2023-09-12T07:10:57;13.80;;;9.67;;
6878;SDS011;3478;51.462;7.338;2023-09-12T07:16:06;9.97;;;8.97;;
6878;SDS011;3478;51.462;7.338;2023-09-12T07:21:08;10.83;;;9.77;;
6878;SDS011;3478;51.462;7.338;2023-09-12T07:26:12;12.93;;;9.17;;
6878;SDS011;3478;51.462;7.338;2023-09-12T07:31:16;7.80;;;7.20;;
6878;SDS011;3478;51.462;7.338;2023-09-12T07:36:18;8.60;;;7.67;;
6878;SDS011;3478;51.462;7.338;2023-09-12T07:41:20;13.60;;;10.17;;
6878;SDS011;3478;51.462;7.338;2023-09-12T07:46:23;10.23;;;9.23;;
6878;SDS011;3478;51.462;7.338;2023-09-12T07:51:25;12.10;;;8.33;;
6878;SDS011;3478;51.462;7.338;2023-09-12T07:56:27;10.50;;;9.50;;
6878;SDS011;3478;51.462;7.338;2023-09-12T08:01:30;10.37;;;9.57;;
6878;SDS011;3478;51.462;7.338;2023-09-12T08:06:32;10.90;;;9.03;;
6878;SDS011;3478;51.462;7.338;2023-09-12T08:11:34;7.90;;;7.30;;
6878;SDS011;3478;51.462;7.338;2023-09-12T08:16:37;7.60;;;6.87;;
6878;SDS011;3478;51.462;7.338;2023-09-12T08:21:39;5.80;;;5.30;;
6878;SDS011;3478;51.462;7.338;2023-09-12T08:26:41;5.80;;;5.50;;
6878;SDS011;3478;51.462;7.338;2023-09-12T08:31:44;5.07;;;4.67;;
6878;SDS011;3478;51.462;7.338;2023-09-12T08:36:47;7.90;;;6.13;;
6878;SDS011;3478;51.462;7.338;2023-09-12T08:41:49;9.33;;;7.27;;
6878;SDS011;3478;51.462;7.338;2023-09-12T08:46:52;9.93;;;9.00;;
6878;SDS011;3478;51.462;7.338;2023-09-12T08:51:54;13.80;;;11.83;;
6878;SDS011;3478;51.462;7.338;2023-09-12T08:56:56;10.00;;;9.20;;
6878;SDS011;3478;51.462;7.338;2023-09-12T09:01:59;12.67;;;11.40;;
6878;SDS011;3478;51.462;7.338;2023-09-12T09:07:02;13.13;;;10.90;;
6878;SDS011;3478;51.462;7.338;2023-09-12T09:12:06;10.63;;;9.73;;
6878;SDS011;3478;51.462;7.338;2023-09-12T09:17:10;13.40;;;12.03;;
6878;SDS011;3478;51.462;7.338;2023-09-12T09:22:14;11.30;;;10.37;;
6878;SDS011;3478;51.462;7.338;2023-09-12T09:27:25;11.43;;;10.53;;
6878;SDS011;3478;51.462;7.338;2023-09-12T09:32:36;12.10;;;10.90;;
6878;SDS011;3478;51.462;7.338;2023-09-12T09:37:38;11.47;;;10.53;;
6878;SDS011;3478;51.462;7.338;2023-09-12T09:42:40;9.17;;;8.30;;
6878;SDS011;3478;51.462;7.338;2023-09-12T09:47:44;9.43;;;8.63;;
6878;SDS011;3478;51.462;7.338;2023-09-12T09:52:46;7.87;;;7.17;;
6878;SDS011;3478;51.462;7.338;2023-09-12T09:57:55;7.30;;;6.80;;
6878;SDS011;3478;51.462;7.338;2023-09-12T10:02:58;6.60;;;5.60;;
6878;SDS011;3478;51.462;7.338;2023-09-12T10:08:05;5.23;;;4.73;;
6878;SDS011;3478;51.462;7.338;2023-09-12T10:13:09;4.93;;;4.17;;
6878;SDS011;3478;51.462;7.338;2023-09-12T10:18:14;4.90;;;4.60;;
6878;SDS011;3478;51.462;7.338;2023-09-12T10:23:22;4.20;;;3.90;;
6878;SDS011;3478;51.462;7.338;2023-09-12T10:28:28;6.90;;;6.37;;
6878;SDS011;3478;51.462;7.338;2023-09-12T10:33:32;4.90;;;4.70;;
6878;SDS011;3478;51.462;7.338;2023-09-12T10:38:35;6.23;;;5.20;;
6878;SDS011;3478;51.462;7.338;2023-09-12T10:43:41;3.47;;;3.27;;
6878;SDS011;3478;51.462;7.338;2023-09-12T10:48:48;3.00;;;2.50;;
6878;SDS011;3478;51.462;7.338;2023-09-12T10:53:50;2.63;;;2.43;;
6878;SDS011;3478;51.462;7.338;2023-09-12T10:59:09;3.57;;;3.17;;
6878;SDS011;3478;51.462;7.338;2023-09-12T11:04:32;3.50;;;3.30;;
6878;SDS011;3478;51.462;7.338;2023-09-12T11:09:37;2.90;;;2.70;;
6878;SDS011;3478;51.462;7.338;2023-09-12T11:20:07;2.40;;;2.20;;
6878;SDS011;3478;51.462;7.338;2023-09-12T11:25:17;3.63;;;2.90;;
6878;SDS011;3478;51.462;7.338;2023-09-12T11:30:23;2.77;;;2.57;;
6878;SDS011;3478;51.462;7.338;2023-09-12T11:35:27;2.27;;;2.17;;
6878;SDS011;3478;51.462;7.338;2023-09-12T11:40:41;3.20;;;3.00;;
6878;SDS011;3478;51.462;7.338;2023-09-12T11:45:44;6.90;;;3.47;;
6878;SDS011;3478;51.462;7.338;2023-09-12T11:50:52;3.70;;;3.40;;
6878;SDS011;3478;51.462;7.338;2023-09-12T11:55:56;4.27;;;2.80;;
6878;SDS011;3478;51.462;7.338;2023-09-12T12:00:59;3.57;;;3.37;;
6878;SDS011;3478;51.462;7.338;2023-09-12T12:06:02;3.40;;;3.20;;
6878;SDS011;3478;51.462;7.338;2023-09-12T12:11:06;2.70;;;2.50;;
6878;SDS011;3478;51.462;7.338;2023-09-12T12:16:14;3.83;;;2.90;;
6878;SDS011;3478;51.462;7.338;2023-09-12T12:21:18;3.17;;;3.07;;
6878;SDS011;3478;51.462;7.338;2023-09-12T12:26:20;3.37;;;3.10;;
6878;SDS011;3478;51.462;7.338;2023-09-12T12:31:22;3.53;;;3.23;;
6878;SDS011;3478;51.462;7.338;2023-09-12T12:36:26;3.60;;;3.30;;
6878;SDS011;3478;51.462;7.338;2023-09-12T12:41:28;3.30;;;3.20;;
6878;SDS011;3478;51.462;7.338;2023-09-12T12:46:30;2.97;;;2.87;;
6878;SDS011;3478;51.462;7.338;2023-09-12T12:51:33;7.00;;;3.77;;
6878;SDS011;3478;51.462;7.338;2023-09-12T12:56:35;3.00;;;2.80;;
6878;SDS011;3478;51.462;7.338;2023-09-12T13:01:38;3.30;;;3.07;;
6878;SDS011;3478;51.462;7.338;2023-09-12T13:06:42;3.70;;;3.50;;
6878;SDS011;3478;51.462;7.338;2023-09-12T13:11:44;3.27;;;3.00;;
6878;SDS011;3478;51.462;7.338;2023-09-12T13:16:46;5.43;;;4.20;;
6878;SDS011;3478;51.462;7.338;2023-09-12T13:21:49;4.43;;;4.10;;
6878;SDS011;3478;51.462;7.338;2023-09-12T13:26:51;3.90;;;3.70;;
6878;SDS011;3478;51.462;7.338;2023-09-12T13:31:53;4.00;;;3.77;;
6878;SDS011;3478;51.462;7.338;2023-09-12T13:36:57;3.23;;;2.90;;
6878;SDS011;3478;51.462;7.338;2023-09-12T13:41:58;3.73;;;3.53;;
6878;SDS011;3478;51.462;7.338;2023-09-12T13:47:03;3.90;;;3.60;;
6878;SDS011;3478;51.462;7.338;2023-09-12T13:52:06;3.43;;;3.23;;
6878;SDS011;3478;51.462;7.338;2023-09-12T13:57:08;2.70;;;2.60;;
6878;SDS011;3478;51.462;7.338;2023-09-12T14:02:10;3.57;;;3.37;;
6878;SDS011;3478;51.462;7.338;2023-09-12T14:07:13;4.50;;;4.20;;
6878;SDS011;3478;51.462;7.338;2023-09-12T14:12:15;5.10;;;3.60;;
6878;SDS011;3478;51.462;7.338;2023-09-12T14:17:17;3.80;;;3.40;;
6878;SDS011;3478;51.462;7.338;2023-09-12T14:22:20;4.40;;;3.27;;
6878;SDS011;3478;51.462;7.338;2023-09-12T14:27:22;3.57;;;3.30;;
6878;SDS011;3478;51.462;7.338;2023-09-12T14:32:24;4.93;;;3.43;;
6878;SDS011;3478;51.462;7.338;2023-09-12T14:37:27;4.00;;;3.70;;
6878;SDS011;3478;51.462;7.338;2023-09-12T14:42:29;4.67;;;4.43;;
6878;SDS011;3478;51.462;7.338;2023-09-12T14:47:31;5.50;;;5.20;;
6878;SDS011;3478;51.462;7.338;2023-09-12T14:52:34;6.10;;;5.70;;
6878;SDS011;3478;51.462;7.338;2023-09-12T14:57:38;6.33;;;5.93;;
6878;SDS011;3478;51.462;7.338;2023-09-12T15:02:40;8.83;;;8.17;;
6878;SDS011;3478;51.462;7.338;2023-09-12T15:07:43;8.50;;;8.00;;
6878;SDS011;3478;51.462;7.338;2023-09-12T15:12:45;8.80;;;6.87;;
6878;SDS011;3478;51.462;7.338;2023-09-12T15:17:48;9.30;;;8.70;;
6878;SDS011;3478;51.462;7.338;2023-09-12T15:22:51;19.53;;;10.13;;
6878;SDS011;3478;51.462;7.338;2023-09-12T15:27:53;10.73;;;9.57;;
6878;SDS011;3478;51.462;7.338;2023-09-12T15:32:54;11.17;;;10.27;;
6878;SDS011;3478;51.462;7.338;2023-09-12T15:37:58;12.03;;;11.17;;
6878;SDS011;3478;51.462;7.338;2023-09-12T15:43:00;10.23;;;9.43;;
6878;SDS011;3478;51.462;7.338;2023-09-12T15:48:03;10.13;;;9.30;;
6878;SDS011;3478;51.462;7.338;2023-09-12T15:53:07;8.77;;;8.20;;
6878;SDS011;3478;51.462;7.338;2023-09-12T15:58:09;8.33;;;7.87;;
6878;SDS011;3478;51.462;7.338;2023-09-12T16:03:11;8.37;;;7.87;;
6878;SDS011;3478;51.462;7.338;2023-09-12T16:08:14;9.17;;;8.47;;
6878;SDS011;3478;51.462;7.338;2023-09-12T16:13:16;11.30;;;7.37;;
6878;SDS011;3478;51.462;7.338;2023-09-12T16:18:18;7.13;;;6.63;;
6878;SDS011;3478;51.462;7.338;2023-09-12T16:23:21;7.40;;;6.70;;
6878;SDS011;3478;51.462;7.338;2023-09-12T16:28:24;6.60;;;6.20;;
6878;SDS011;3478;51.462;7.338;2023-09-12T16:33:26;5.40;;;5.10;;
6878;SDS011;3478;51.462;7.338;2023-09-12T16:38:34;6.80;;;6.30;;
6878;SDS011;3478;51.462;7.338;2023-09-12T16:43:36;6.27;;;5.90;;
6878;SDS011;3478;51.462;7.338;2023-09-12T16:48:38;7.33;;;6.60;;
6878;SDS011;3478;51.462;7.338;2023-09-12T16:53:43;6.03;;;5.73;;
6878;SDS011;3478;51.462;7.338;2023-09-12T16:58:45;6.43;;;6.10;;
6878;SDS011;3478;51.462;7.338;2023-09-12T17:03:47;6.00;;;5.50;;
6878;SDS011;3478;51.462;7.338;2023-09-12T17:09:01;7.83;;;7.27;;
6878;SDS011;3478;51.462;7.338;2023-09-12T17:14:03;7.20;;;6.80;;
6878;SDS011;3478;51.462;7.338;2023-09-12T17:19:05;7.23;;;6.73;;
6878;SDS011;3478;51.462;7.338;2023-09-12T17:24:08;10.20;;;7.23;;
6878;SDS011;3478;51.462;7.338;2023-09-12T17:29:11;7.57;;;6.77;;
6878;SDS011;3478;51.462;7.338;2023-09-12T17:34:13;7.27;;;6.80;;
6878;SDS011;3478;51.462;7.338;2023-09-12T17:39:17;7.20;;;6.50;;
6878;SDS011;3478;51.462;7.338;2023-09-12T17:44:19;6.60;;;6.10;;
6878;SDS011;3478;51.462;7.338;2023-09-12T17:49:21;7.77;;;7.07;;
6878;SDS011;3478;51.462;7.338;2023-09-12T17:54:24;8.67;;;7.33;;
6878;SDS011;3478;51.462;7.338;2023-09-12T17:59:26;8.53;;;7.73;;
6878;SDS011;3478;51.462;7.338;2023-09-12T18:04:28;7.07;;;6.57;;
6878;SDS011;3478;51.462;7.338;2023-09-12T18:09:32;15.70;;;7.60;;
6878;SDS011;3478;51.462;7.338;2023-09-12T18:14:33;7.87;;;7.27;;
6878;SDS011;3478;51.462;7.338;2023-09-12T18:19:35;8.10;;;7.33;;
6878;SDS011;3478;51.462;7.338;2023-09-12T18:24:39;8.10;;;7.50;;
6878;SDS011;3478;51.462;7.338;2023-09-12T18:29:40;9.10;;;8.30;;
6878;SDS011;3478;51.462;7.338;2023-09-12T18:34:42;9.47;;;8.70;;
6878;SDS011;3478;51.462;7.338;2023-09-12T18:39:45;10.87;;;9.97;;
6878;SDS011;3478;51.462;7.338;2023-09-12T18:44:47;11.47;;;10.37;;
6878;SDS011;3478;51.462;7.338;2023-09-12T18:49:49;12.50;;;10.90;;
6878;SDS011;3478;51.462;7.338;2023-09-12T18:54:53;12.30;;;11.20;;
6878;SDS011;3478;51.462;7.338;2023-09-12T18:59:55;11.40;;;10.37;;
6878;SDS011;3478;51.462;7.338;2023-09-12T19:04:57;11.97;;;10.90;;
6878;SDS011;3478;51.462;7.338;2023-09-12T19:10:01;11.70;;;10.80;;
6878;SDS011;3478;51.462;7.338;2023-09-12T19:15:04;13.33;;;11.20;;
6878;SDS011;3478;51.462;7.338;2023-09-12T19:20:07;10.30;;;9.50;;
6878;SDS011;3478;51.462;7.338;2023-09-12T19:25:13;12.63;;;11.43;;
6878;SDS011;3478;51.462;7.338;2023-09-12T19:30:15;11.67;;;10.70;;
6878;SDS011;3478;51.462;7.338;2023-09-12T19:35:16;15.90;;;11.40;;
6878;SDS011;3478;51.462;7.338;2023-09-12T19:40:20;13.57;;;12.33;;
6878;SDS011;3478;51.462;7.338;2023-09-12T19:45:21;11.90;;;10.83;;
6878;SDS011;3478;51.462;7.338;2023-09-12T19:50:23;12.67;;;11.10;;
6878;SDS011;3478;51.462;7.338;2023-09-12T19:55:27;13.67;;;12.27;;
6878;SDS011;3478;51.462;7.338;2023-09-12T20:00:28;12.23;;;11.13;;
6878;SDS011;3478;51.462;7.338;2023-09-12T20:05:30;13.03;;;11.73;;
6878;SDS011;3478;51.462;7.338;2023-09-12T20:10:34;13.73;;;12.30;;
6878;SDS011;3478;51.462;7.338;2023-09-12T20:15:37;12.20;;;10.97;;
6878;SDS011;3478;51.462;7.338;2023-09-12T20:20:39;11.87;;;10.87;;
6878;SDS011;3478;51.462;7.338;2023-09-12T20:25:46;11.93;;;10.83;;
6878;SDS011;3478;51.462;7.338;2023-09-12T20:30:50;13.37;;;11.97;;
6878;SDS011;3478;51.462;7.338;2023-09-12T20:35:52;13.20;;;12.00;;
6878;SDS011;3478;51.462;7.338;2023-09-12T20:40:56;12.60;;;11.27;;
6878;SDS011;3478;51.462;7.338;2023-09-12T20:45:57;13.40;;;12.17;;
6878;SDS011;3478;51.462;7.338;2023-09-12T20:50:59;13.63;;;12.27;;
6878;SDS011;3478;51.462;7.338;2023-09-12T20:56:02;17.00;;;13.40;;
6878;SDS011;3478;51.462;7.338;2023-09-12T21:01:05;15.03;;;13.67;;
6878;SDS011;3478;51.462;7.338;2023-09-12T21:06:06;18.43;;;14.40;;
6878;SDS011;3478;51.462;7.338;2023-09-12T21:11:10;16.03;;;14.43;;
6878;SDS011;3478;51.462;7.338;2023-09-12T21:16:11;16.53;;;15.03;;
6878;SDS011;3478;51.462;7.338;2023-09-12T21:21:13;14.53;;;13.10;;
6878;SDS011;3478;51.462;7.338;2023-09-12T21:26:16;15.63;;;14.07;;
6878;SDS011;3478;51.462;7.338;2023-09-12T21:31:18;15.30;;;13.80;;
6878;SDS011;3478;51.462;7.338;2023-09-12T21:36:20;19.17;;;13.93;;
6878;SDS011;3478;51.462;7.338;2023-09-12T21:41:23;17.43;;;15.70;;
6878;SDS011;3478;51.462;7.338;2023-09-12T21:46:25;16.40;;;14.80;;
6878;SDS011;3478;51.462;7.338;2023-09-12T21:51:27;18.13;;;15.97;;
6878;SDS011;3478;51.462;7.338;2023-09-12T21:56:30;16.57;;;14.87;;
6878;SDS011;3478;51.462;7.338;2023-09-12T22:01:32;21.83;;;17.63;;
6878;SDS011;3478;51.462;7.338;2023-09-12T22:06:34;18.37;;;16.63;;
6878;SDS011;3478;51.462;7.338;2023-09-12T22:11:37;17.33;;;15.53;;
6878;SDS011;3478;51.462;7.338;2023-09-12T22:16:39;18.57;;;16.77;;
6878;SDS011;3478;51.462;7.338;2023-09-12T22:21:41;19.00;;;17.07;;
6878;SDS011;3478;51.462;7.338;2023-09-12T22:26:44;19.03;;;17.23;;
6878;SDS011;3478;51.462;7.338;2023-09-12T22:31:46;18.90;;;17.00;;
6878;SDS011;3478;51.462;7.338;2023-09-12T22:36:47;21.20;;;17.00;;
6878;SDS011;3478;51.462;7.338;2023-09-12T22:41:51;24.97;;;19.13;;
6878;SDS011;3478;51.462;7.338;2023-09-12T22:46:53;21.10;;;18.93;;
6878;SDS011;3478;51.462;7.338;2023-09-12T22:51:55;22.30;;;17.97;;
6878;SDS011;3478;51.462;7.338;2023-09-12T22:56:58;21.87;;;17.70;;
6878;SDS011;3478;51.462;7.338;2023-09-12T23:02:00;22.13;;;19.60;;
6878;SDS011;3478;51.462;7.338;2023-09-12T23:07:02;24.40;;;20.60;;
6878;SDS011;3478;51.462;7.338;2023-09-12T23:12:06;26.47;;;21.87;;
6878;SDS011;3478;51.462;7.338;2023-09-12T23:17:09;26.37;;;20.40;;
6878;SDS011;3478;51.462;7.338;2023-09-12T23:22:10;32.13;;;21.13;;
6878;SDS011;3478;51.462;7.338;2023-09-12T23:27:14;24.90;;;21.30;;
6878;SDS011;3478;51.462;7.338;2023-09-12T23:32:16;28.13;;;21.10;;
6878;SDS011;3478;51.462;7.338;2023-09-12T23:37:18;32.43;;;20.17;;
6878;SDS011;3478;51.462;7.338;2023-09-12T23:42:22;21.13;;;18.57;;
6878;SDS011;3478;51.462;7.338;2023-09-12T23:47:24;22.50;;;18.93;;
6878;SDS011;3478;51.462;7.338;2023-09-12T23:52:26;27.70;;;19.40;;
6878;SDS011;3478;51.462;7.338;2023-09-12T23:57:30;26.90;;;19.83;;
